Time;durP1;ratioP1;P1;durP2;ratioP2;P2;SDS_P1;SDS_P2;PMS_P1;PMS_P2;Temp;Humidity;BMP_temperature;BMP_pressure;BME280_temperature;BME280_humidity;BME280_pressure;Samples;Min_cycle;Max_cycle;Signal;HPM_P1;HPM_P2
2022/07/21 00:00:29;;;;;;;4.17;3.87;;;26.60;60.90;;;;;;5012031;28;20427;-66
2022/07/21 00:02:56;;;;;;;5.63;5.13;;;26.60;61.00;;;;;;5012343;28;20183;-66
2022/07/21 00:05:22;;;;;;;5.73;5.20;;;26.60;61.20;;;;;;5011916;28;20179;-67
2022/07/21 00:07:48;;;;;;;5.13;4.70;;;26.50;61.50;;;;;;5012096;28;20482;-67
2022/07/21 00:10:15;;;;;;;4.63;4.23;;;26.50;61.80;;;;;;5012595;28;20431;-66
2022/07/21 00:12:41;;;;;;;5.17;4.63;;;26.40;62.10;;;;;;5012067;28;20425;-66
2022/07/21 00:15:09;;;;;;;5.73;5.10;;;26.40;62.30;;;;;;5012002;28;20475;-66
2022/07/21 00:17:34;;;;;;;4.90;4.50;;;26.40;62.40;;;;;;5012081;28;20407;-66
2022/07/21 00:20:00;;;;;;;4.90;4.50;;;26.30;63.50;;;;;;5012416;28;20711;-65
2022/07/21 00:22:26;;;;;;;5.43;4.00;;;26.30;62.80;;;;;;5011933;28;20181;-66
2022/07/21 00:24:51;;;;;;;5.93;5.20;;;26.30;62.80;;;;;;5011833;28;20420;-66
2022/07/21 00:27:17;;;;;;;5.30;4.40;;;26.30;63.30;;;;;;5011710;28;20198;-66
2022/07/21 00:29:43;;;;;;;4.73;4.23;;;26.20;63.20;;;;;;5011934;28;20195;-65
2022/07/21 00:32:08;;;;;;;5.00;4.57;;;26.20;63.30;;;;;;5012048;28;20191;-65
2022/07/21 00:34:34;;;;;;;6.87;4.70;;;26.10;63.50;;;;;;5011764;28;20509;-66
2022/07/21 00:37:00;;;;;;;7.60;4.87;;;26.10;63.80;;;;;;5011713;28;20168;-65
2022/07/21 00:39:25;;;;;;;5.00;4.50;;;26.10;63.90;;;;;;5011569;28;20437;-66
2022/07/21 00:41:51;;;;;;;9.80;4.40;;;26.10;63.90;;;;;;5011659;28;20225;-66
2022/07/21 00:44:24;;;;;;;6.27;4.60;;;26.00;64.20;;;;;;5011952;28;20317;-66
2022/07/21 00:46:50;;;;;;;8.90;6.57;;;26.00;64.20;;;;;;5011612;28;20530;-65
2022/07/21 00:49:17;;;;;;;5.73;4.40;;;26.00;64.50;;;;;;5011686;28;20452;-66
2022/07/21 00:51:42;;;;;;;5.03;4.57;;;25.90;64.60;;;;;;5012585;28;20426;-66
2022/07/21 00:54:08;;;;;;;4.70;4.17;;;25.90;64.80;;;;;;5011740;28;20415;-65
2022/07/21 00:56:34;;;;;;;7.17;5.00;;;25.90;64.70;;;;;;5011416;28;20279;-65
2022/07/21 00:59:00;;;;;;;5.00;4.60;;;25.90;64.90;;;;;;5011296;28;20714;-65
2022/07/21 01:01:26;;;;;;;6.23;5.63;;;25.90;64.90;;;;;;5037289;23;20224;-74
2022/07/21 01:03:51;;;;;;;5.10;4.60;;;25.90;65.00;;;;;;5015396;28;20805;-74
2022/07/21 01:06:17;;;;;;;5.67;4.57;;;25.90;65.00;;;;;;5014124;28;20711;-73
2022/07/21 01:08:42;;;;;;;6.97;4.90;;;25.90;65.00;;;;;;5013655;28;20274;-74
2022/07/21 01:11:08;;;;;;;5.70;5.20;;;25.90;65.00;;;;;;5014000;28;20364;-74
2022/07/21 01:13:34;;;;;;;5.50;4.40;;;25.90;65.10;;;;;;5013940;28;20175;-74
2022/07/21 01:15:59;;;;;;;5.80;4.53;;;25.90;65.20;;;;;;5013364;28;20212;-74
2022/07/21 01:18:26;;;;;;;5.87;5.37;;;25.80;65.20;;;;;;5018093;28;20177;-72
2022/07/21 01:20:53;;;;;;;6.27;5.37;;;25.80;65.50;;;;;;5017798;28;20201;-73
2022/07/21 01:23:20;;;;;;;7.93;5.03;;;25.70;65.80;;;;;;5015963;28;20418;-73
2022/07/21 01:25:51;;;;;;;6.40;5.30;;;25.70;65.90;;;;;;5016333;28;20413;-73
2022/07/21 01:28:16;;;;;;;9.67;4.60;;;25.70;66.00;;;;;;5017318;28;20447;-73
2022/07/21 01:30:42;;;;;;;5.00;4.60;;;25.70;66.00;;;;;;5017512;28;20418;-74
2022/07/21 01:33:08;;;;;;;5.33;4.77;;;25.70;66.30;;;;;;5017475;28;20707;-74
2022/07/21 01:35:34;;;;;;;4.97;4.47;;;25.70;66.40;;;;;;5017321;28;20166;-74
2022/07/21 01:38:00;;;;;;;4.77;4.37;;;25.70;66.50;;;;;;5017748;28;20173;-73
2022/07/21 01:43:10;;;;;;;5.20;4.73;;;25.60;66.90;;;;;;5017754;28;20435;-73
2022/07/21 01:45:35;;;;;;;8.30;4.60;;;25.60;66.90;;;;;;5017279;28;20414;-73
2022/07/21 01:48:02;;;;;;;6.90;5.20;;;25.60;67.20;;;;;;5017685;28;20282;-73
2022/07/21 01:50:27;;;;;;;5.80;5.20;;;25.50;67.40;;;;;;5017796;28;20194;-73
2022/07/21 01:52:57;;;;;;;8.90;5.53;;;25.50;67.50;;;;;;5016759;28;20398;-72
2022/07/21 01:55:23;;;;;;;6.13;5.53;;;25.50;67.60;;;;;;5019192;28;20197;-73
2022/07/21 01:57:49;;;;;;;5.00;4.50;;;25.50;67.90;;;;;;5026665;28;20552;-73
2022/07/21 02:00:14;;;;;;;6.10;5.10;;;25.50;67.90;;;;;;5019303;28;20501;-73
2022/07/21 02:02:40;;;;;;;6.03;5.43;;;25.50;67.90;;;;;;5017201;28;20179;-73
2022/07/21 02:05:06;;;;;;;5.83;5.30;;;25.50;68.00;;;;;;5016730;28;20549;-73
2022/07/21 02:07:31;;;;;;;6.17;5.53;;;25.50;68.10;;;;;;5016649;28;20205;-74
2022/07/21 02:09:57;;;;;;;7.43;4.87;;;25.40;68.30;;;;;;5015847;28;20190;-74
2022/07/21 02:12:23;;;;;;;4.50;3.90;;;25.40;68.60;;;;;;5016674;28;20245;-73
2022/07/21 02:14:49;;;;;;;5.23;4.70;;;25.40;68.70;;;;;;5016387;28;20169;-73
2022/07/21 02:17:14;;;;;;;5.00;4.57;;;25.40;69.00;;;;;;5016233;28;20442;-72
2022/07/21 02:19:40;;;;;;;5.03;4.40;;;25.30;69.20;;;;;;5016041;28;20209;-74
2022/07/21 02:22:06;;;;;;;5.17;4.67;;;25.30;69.20;;;;;;5015465;28;20591;-73
2022/07/21 02:24:31;;;;;;;6.20;4.90;;;25.30;69.40;;;;;;5016283;28;20163;-73
2022/07/21 02:26:57;;;;;;;6.67;5.17;;;25.20;69.90;;;;;;5015997;28;20169;-73
2022/07/21 02:29:23;;;;;;;5.70;4.37;;;25.20;70.10;;;;;;5016332;28;20238;-74
2022/07/21 02:31:48;;;;;;;8.53;3.80;;;25.20;70.20;;;;;;5016513;28;20527;-74
2022/07/21 02:34:14;;;;;;;5.93;4.77;;;25.20;70.40;;;;;;5016345;28;20764;-74
2022/07/21 02:36:40;;;;;;;5.47;4.90;;;25.20;70.50;;;;;;5016647;28;20172;-73
2022/07/21 02:39:05;;;;;;;5.70;4.40;;;25.10;70.70;;;;;;5016549;28;20185;-73
2022/07/21 02:41:31;;;;;;;4.80;4.37;;;25.10;70.80;;;;;;5016672;28;20661;-74
2022/07/21 02:43:57;;;;;;;5.20;4.37;;;25.10;72.10;;;;;;5017106;28;20190;-74
2022/07/21 02:46:22;;;;;;;6.20;4.30;;;25.00;71.40;;;;;;5016925;28;20579;-74
2022/07/21 02:48:48;;;;;;;6.23;4.57;;;25.10;71.50;;;;;;5016847;28;20188;-73
2022/07/21 02:51:13;;;;;;;8.80;5.10;;;25.10;71.50;;;;;;5017595;28;20183;-74
2022/07/21 02:53:39;;;;;;;4.40;4.10;;;25.10;71.70;;;;;;5022768;28;20176;-73
2022/07/21 02:56:05;;;;;;;5.20;4.70;;;25.00;71.80;;;;;;5018153;28;20179;-73
2022/07/21 02:58:31;;;;;;;4.73;4.33;;;25.00;72.00;;;;;;5015572;28;20175;-74
2022/07/21 03:01:00;;;;;;;4.60;3.40;;;25.10;71.60;;;;;;5015179;28;20475;-73
2022/07/21 03:03:29;;;;;;;4.00;3.70;;;25.10;71.50;;;;;;5015832;28;20419;-74
2022/07/21 03:05:55;;;;;;;7.00;4.23;;;25.10;71.50;;;;;;5015306;28;20427;-73
2022/07/21 03:08:22;;;;;;;3.93;3.53;;;25.10;71.60;;;;;;5015322;28;20497;-74
2022/07/21 03:10:48;;;;;;;4.40;4.00;;;25.10;71.40;;;;;;5015181;28;20458;-75
2022/07/21 03:13:14;;;;;;;4.63;3.63;;;25.10;71.50;;;;;;5015150;28;20402;-74
2022/07/21 03:15:40;;;;;;;7.77;4.67;;;25.20;71.40;;;;;;5014944;28;20171;-74
2022/07/21 03:18:05;;;;;;;7.83;4.00;;;25.10;71.60;;;;;;5015003;28;20694;-73
2022/07/21 03:20:34;;;;;;;11.63;4.37;;;25.10;71.60;;;;;;5015041;28;20201;-73
2022/07/21 03:23:00;;;;;;;4.37;3.97;;;25.10;71.50;;;;;;5014744;28;20327;-74
2022/07/21 03:25:26;;;;;;;4.47;4.07;;;25.20;71.40;;;;;;5014606;28;21219;-75
2022/07/21 03:27:52;;;;;;;4.87;4.47;;;25.20;71.30;;;;;;5014269;28;20255;-73
2022/07/21 03:30:18;;;;;;;4.53;4.13;;;25.10;71.60;;;;;;5014625;28;20420;-73
2022/07/21 03:32:44;;;;;;;4.50;4.07;;;25.10;71.70;;;;;;5014716;28;20165;-73
2022/07/21 03:35:11;;;;;;;4.00;3.70;;;25.00;72.50;;;;;;5014654;28;20534;-75
2022/07/21 03:37:45;;;;;;;7.90;4.03;;;25.00;72.50;;;;;;5014582;28;20824;-72
2022/07/21 03:40:14;;;;;;;4.40;4.10;;;25.00;72.60;;;;;;5014443;28;20448;-74
2022/07/21 03:42:40;;;;;;;4.93;4.33;;;25.00;72.90;;;;;;5017567;28;20422;-74
2022/07/21 03:45:06;;;;;;;4.60;4.00;;;25.00;72.80;;;;;;5021286;28;20792;-74
2022/07/21 03:47:32;;;;;;;5.97;4.63;;;24.90;72.90;;;;;;5015868;28;20229;-74
2022/07/21 03:49:58;;;;;;;4.23;3.83;;;24.90;73.00;;;;;;5015503;28;20444;-74
2022/07/21 03:52:23;;;;;;;3.73;3.43;;;24.90;72.80;;;;;;5014855;28;20178;-74
2022/07/21 03:54:49;;;;;;;3.50;3.20;;;25.00;73.00;;;;;;5015261;28;20307;-74
2022/07/21 03:57:14;;;;;;;3.90;3.60;;;25.00;73.00;;;;;;5015270;28;20195;-74
2022/07/21 03:59:40;;;;;;;3.83;3.47;;;24.90;72.80;;;;;;5014646;28;20195;-74
2022/07/21 04:02:06;;;;;;;5.30;4.10;;;24.90;73.00;;;;;;5014276;28;20159;-73
2022/07/21 04:04:31;;;;;;;4.20;3.80;;;24.90;72.90;;;;;;5014151;28;20548;-74
2022/07/21 04:06:57;;;;;;;6.20;3.70;;;24.90;72.90;;;;;;5013824;28;20426;-72
2022/07/21 04:09:23;;;;;;;5.40;3.40;;;24.90;73.20;;;;;;5013892;28;20206;-73
2022/07/21 04:11:48;;;;;;;4.40;4.00;;;24.90;73.10;;;;;;5013975;28;20173;-73
2022/07/21 04:14:14;;;;;;;3.80;3.47;;;24.90;73.20;;;;;;5013812;28;20200;-73
2022/07/21 04:16:39;;;;;;;5.23;4.13;;;25.00;73.30;;;;;;5014263;28;20179;-73
2022/07/21 04:19:05;;;;;;;5.10;3.70;;;25.00;73.50;;;;;;5014073;28;20600;-73
2022/07/21 04:21:30;;;;;;;5.57;4.00;;;24.90;73.80;;;;;;5014014;28;20703;-73
2022/07/21 04:23:56;;;;;;;4.80;3.53;;;24.90;74.10;;;;;;5012832;28;20195;-73
2022/07/21 04:26:22;;;;;;;4.37;3.97;;;25.00;74.20;;;;;;5013629;28;20176;-73
2022/07/21 04:28:47;;;;;;;4.43;4.03;;;24.90;74.50;;;;;;5013801;28;20213;-74
2022/07/21 04:31:13;;;;;;;7.43;4.10;;;25.00;74.80;;;;;;5011769;28;20617;-73
2022/07/21 04:33:38;;;;;;;5.90;4.27;;;24.90;75.30;;;;;;5013595;28;20625;-74
2022/07/21 04:36:04;;;;;;;10.23;4.33;;;24.80;75.60;;;;;;5013335;28;20513;-74
2022/07/21 04:38:30;;;;;;;4.40;4.00;;;24.80;76.00;;;;;;5013532;28;20716;-71
2022/07/21 04:40:55;;;;;;;6.40;4.30;;;24.80;77.10;;;;;;5013670;28;20423;-73
2022/07/21 04:43:21;;;;;;;4.80;4.07;;;24.70;76.60;;;;;;5013436;28;20182;-73
2022/07/21 04:45:47;;;;;;;6.23;4.60;;;24.80;76.80;;;;;;5013894;28;20656;-74
2022/07/21 04:48:12;;;;;;;5.23;4.83;;;24.80;76.90;;;;;;5013246;28;20196;-72
2022/07/21 04:50:38;;;;;;;4.80;4.03;;;24.80;77.20;;;;;;5013000;28;20188;-73
2022/07/21 04:53:04;;;;;;;4.40;3.73;;;24.90;77.30;;;;;;5013449;28;20163;-73
2022/07/21 04:55:29;;;;;;;5.10;3.57;;;24.90;77.30;;;;;;5013335;28;20163;-73
2022/07/21 04:57:57;;;;;;;4.00;3.70;;;25.10;77.40;;;;;;5013522;28;20177;-73
2022/07/21 05:00:25;;;;;;;5.47;3.77;;;25.30;76.10;;;;;;5012473;28;20204;-73
2022/07/21 05:02:52;;;;;;;4.80;4.37;;;25.30;76.50;;;;;;5014900;28;20439;-73
2022/07/21 05:05:18;;;;;;;7.03;5.53;;;25.10;77.80;;;;;;5014583;28;20443;-74
2022/07/21 05:07:43;;;;;;;5.43;4.93;;;25.20;77.40;;;;;;5013743;28;20450;-72
2022/07/21 05:10:12;;;;;;;6.27;5.67;;;25.20;77.60;;;;;;5013916;28;20423;-73
2022/07/21 05:12:38;;;;;;;6.33;5.00;;;25.00;78.90;;;;;;5013510;28;20170;-73
2022/07/21 05:15:09;;;;;;;8.00;6.37;;;24.90;79.70;;;;;;5013104;28;20509;-74
2022/07/21 05:17:34;;;;;;;8.67;7.87;;;24.90;80.60;;;;;;5012584;28;20230;-73
2022/07/21 05:20:00;;;;;;;9.23;8.13;;;24.70;82.40;;;;;;5013993;28;20444;-73
2022/07/21 05:22:26;;;;;;;9.70;8.27;;;25.00;83.00;;;;;;5014636;28;20197;-73
2022/07/21 05:24:52;;;;;;;11.10;9.20;;;25.40;82.90;;;;;;5014975;28;20180;-73
2022/07/21 05:27:17;;;;;;;11.47;10.10;;;25.50;82.50;;;;;;5015947;28;20206;-72
2022/07/21 05:29:43;;;;;;;11.47;9.40;;;25.60;83.10;;;;;;5019455;28;20279;-74
2022/07/21 05:32:08;;;;;;;11.00;8.07;;;25.40;83.20;;;;;;5014960;28;20240;-74
2022/07/21 05:34:34;;;;;;;11.57;9.53;;;25.90;82.50;;;;;;5013008;28;20197;-74
2022/07/21 05:36:59;;;;;;;11.50;10.50;;;26.30;82.50;;;;;;5013224;28;20172;-73
2022/07/21 05:39:25;;;;;;;12.87;10.07;;;26.20;81.40;;;;;;5012901;28;20206;-73
2022/07/21 05:41:51;;;;;;;11.40;9.70;;;26.30;82.40;;;;;;5013758;28;20234;-73
2022/07/21 05:44:16;;;;;;;11.77;10.73;;;26.70;80.90;;;;;;5015130;28;20311;-73
2022/07/21 05:46:42;;;;;;;11.40;10.37;;;26.70;81.70;;;;;;5015001;28;20765;-73
2022/07/21 05:49:07;;;;;;;10.20;9.10;;;27.20;79.50;;;;;;5015290;28;20223;-75
2022/07/21 05:51:33;;;;;;;13.17;11.87;;;26.70;81.50;;;;;;5017253;28;20192;-73
2022/07/21 05:53:59;;;;;;;12.33;11.20;;;26.70;81.40;;;;;;5016347;28;20537;-74
2022/07/21 05:56:24;;;;;;;13.20;11.50;;;27.60;79.80;;;;;;5017501;28;20222;-73
2022/07/21 05:58:50;;;;;;;12.00;10.90;;;27.50;79.40;;;;;;5017594;28;20639;-74
2022/07/21 06:01:16;;;;;;;13.00;10.97;;;27.70;79.70;;;;;;5016832;28;20705;-74
2022/07/21 06:03:48;;;;;;;12.70;11.30;;;26.70;80.50;;;;;;5020365;28;20246;-74
2022/07/21 06:06:18;;;;;;;10.77;9.70;;;27.50;80.00;;;;;;5017647;28;20514;-73
2022/07/21 06:08:45;;;;;;;12.67;11.47;;;27.20;80.30;;;;;;5017155;28;20501;-73
2022/07/21 06:11:13;;;;;;;11.13;9.97;;;27.60;78.40;;;;;;5019532;28;20427;-74
2022/07/21 06:13:39;;;;;;;11.83;10.30;;;27.60;80.40;;;;;;5019803;28;20407;-73
2022/07/21 06:16:06;;;;;;;12.30;11.10;;;27.10;79.30;;;;;;5020240;28;20943;-73
2022/07/21 06:18:32;;;;;;;12.53;11.23;;;26.90;80.20;;;;;;5020341;28;20446;-73
2022/07/21 06:20:57;;;;;;;10.40;9.40;;;27.50;79.30;;;;;;5019238;28;20821;-74
2022/07/21 06:23:23;;;;;;;9.87;8.87;;;27.20;81.40;;;;;;5021569;28;20250;-74
2022/07/21 06:25:49;;;;;;;11.37;10.33;;;28.70;77.60;;;;;;5022071;28;20538;-73
2022/07/21 06:28:15;;;;;;;12.67;10.93;;;28.60;75.80;;;;;;5020379;28;20251;-74
2022/07/21 06:30:41;;;;;;;11.57;10.37;;;28.40;76.30;;;;;;5020648;28;20808;-73
2022/07/21 06:33:06;;;;;;;12.03;9.37;;;28.20;77.60;;;;;;5018724;28;20643;-73
2022/07/21 06:35:32;;;;;;;8.83;8.03;;;28.20;77.00;;;;;;5018349;28;20408;-74
2022/07/21 06:37:58;;;;;;;10.80;9.90;;;29.30;75.90;;;;;;5017917;28;20176;-75
2022/07/21 06:40:24;;;;;;;11.87;10.87;;;29.90;71.90;;;;;;5019676;28;20423;-74
2022/07/21 06:42:49;;;;;;;10.57;9.40;;;28.30;74.90;;;;;;5020576;28;20191;-74
2022/07/21 06:45:15;;;;;;;11.90;10.20;;;28.60;75.20;;;;;;5019972;28;20173;-74
2022/07/21 06:47:40;;;;;;;12.13;10.13;;;29.40;74.30;;;;;;5017902;28;20254;-74
2022/07/21 06:50:07;;;;;;;9.17;8.27;;;30.00;71.40;;;;;;5017792;28;20192;-74
2022/07/21 06:52:34;;;;;;;10.07;9.07;;;29.10;73.10;;;;;;5018170;28;20168;-74
2022/07/21 06:55:01;;;;;;;10.73;9.67;;;28.70;75.50;;;;;;5018167;28;20548;-73
2022/07/21 06:57:26;;;;;;;11.27;10.07;;;28.60;75.20;;;;;;5018028;28;20406;-74
2022/07/21 06:59:52;;;;;;;10.53;9.47;;;29.10;75.00;;;;;;5038276;23;20439;-71
2022/07/21 07:02:17;;;;;;;12.03;10.77;;;28.90;75.40;;;;;;4994519;28;20596;-72
2022/07/21 07:04:43;;;;;;;11.03;9.93;;;29.80;72.40;;;;;;4994521;28;20256;-70
2022/07/21 07:07:09;;;;;;;9.20;8.40;;;29.20;72.70;;;;;;4994526;28;20191;-72
2022/07/21 07:09:35;;;;;;;9.97;9.17;;;29.50;72.40;;;;;;4994526;28;20205;-73
2022/07/21 07:12:03;;;;;;;10.50;9.50;;;29.40;74.80;;;;;;4994414;28;20428;-72
2022/07/21 07:14:33;;;;;;;11.37;10.27;;;28.90;73.80;;;;;;4993625;28;20169;-72
2022/07/21 07:17:00;;;;;;;11.27;9.40;;;29.80;72.60;;;;;;4994284;28;20404;-72
2022/07/21 07:19:27;;;;;;;13.50;10.70;;;30.90;70.00;;;;;;4994225;28;20467;-71
2022/07/21 07:21:52;;;;;;;10.10;9.10;;;30.70;69.80;;;;;;4994121;28;20428;-71
2022/07/21 07:24:18;;;;;;;10.57;9.47;;;30.70;68.80;;;;;;4994168;28;20403;-72
2022/07/21 07:26:44;;;;;;;10.10;9.13;;;30.10;70.90;;;;;;4994023;28;20181;-72
2022/07/21 07:29:10;;;;;;;9.77;8.93;;;30.40;70.00;;;;;;4993949;28;20200;-72
2022/07/21 07:31:36;;;;;;;9.93;8.87;;;31.50;66.80;;;;;;4993804;28;20603;-72
2022/07/21 07:34:02;;;;;;;9.60;8.67;;;30.70;67.80;;;;;;4993729;28;20404;-72
2022/07/21 07:36:28;;;;;;;10.93;9.93;;;30.70;69.90;;;;;;4993721;28;20917;-72
2022/07/21 07:38:55;;;;;;;9.77;8.90;;;30.70;68.50;;;;;;4993771;28;20168;-71
2022/07/21 07:41:23;;;;;;;9.87;8.97;;;31.80;66.60;;;;;;4993622;28;20945;-72
2022/07/21 07:43:49;;;;;;;9.07;8.13;;;31.70;66.90;;;;;;4993631;28;20415;-72
2022/07/21 07:46:15;;;;;;;8.20;7.50;;;31.20;68.60;;;;;;4993450;28;20769;-72
2022/07/21 07:48:41;;;;;;;9.00;8.30;;;30.90;67.40;;;;;;4993714;28;20443;-72
2022/07/21 07:51:08;;;;;;;8.40;7.70;;;31.30;66.70;;;;;;4993494;28;20243;-72
2022/07/21 07:53:34;;;;;;;9.07;7.70;;;31.40;67.10;;;;;;4993562;28;20412;-72
2022/07/21 07:56:00;;;;;;;8.50;7.90;;;31.10;67.50;;;;;;4993632;28;20403;-72
2022/07/21 07:58:25;;;;;;;9.33;8.33;;;31.80;66.90;;;;;;4993358;28;20887;-72
2022/07/21 08:00:51;;;;;;;9.23;8.43;;;32.50;65.00;;;;;;4993325;28;20286;-71
2022/07/21 08:03:17;;;;;;;8.90;8.20;;;31.90;64.90;;;;;;4993445;28;20617;-72
2022/07/21 08:05:43;;;;;;;8.83;7.97;;;31.50;66.70;;;;;;4993432;28;20177;-71
2022/07/21 08:08:09;;;;;;;8.20;7.40;;;30.90;67.90;;;;;;4993497;28;20655;-72
2022/07/21 08:10:35;;;;;;;8.13;7.43;;;29.90;70.50;;;;;;4993780;28;20185;-73
2022/07/21 08:13:00;;;;;;;8.50;7.80;;;30.50;71.00;;;;;;4993416;28;20531;-73
2022/07/21 08:15:26;;;;;;;8.70;7.90;;;30.00;72.80;;;;;;4993411;28;20400;-71
2022/07/21 08:17:51;;;;;;;9.00;8.20;;;29.40;72.20;;;;;;4993188;28;20227;-72
2022/07/21 08:20:17;;;;;;;9.63;7.10;;;29.10;73.20;;;;;;4993072;28;20246;-71
2022/07/21 08:22:43;;;;;;;9.17;7.67;;;29.40;73.90;;;;;;4993005;28;20168;-71
2022/07/21 08:25:08;;;;;;;9.00;8.20;;;29.60;74.30;;;;;;4992711;28;20654;-71
2022/07/21 08:27:34;;;;;;;8.23;7.17;;;29.60;74.10;;;;;;4993002;28;20650;-71
2022/07/21 08:29:59;;;;;;;8.47;7.77;;;29.60;74.20;;;;;;4992910;28;20192;-71
2022/07/21 08:32:25;;;;;;;9.33;7.10;;;29.90;73.30;;;;;;4992738;28;20172;-72
2022/07/21 08:34:50;;;;;;;8.47;7.60;;;29.90;73.50;;;;;;4992757;28;20547;-70
2022/07/21 08:37:19;;;;;;;8.97;8.03;;;29.60;73.60;;;;;;4992933;28;20227;-71
2022/07/21 08:39:45;;;;;;;7.20;6.50;;;31.20;70.00;;;;;;4992736;28;20627;-71
2022/07/21 08:42:12;;;;;;;8.70;7.90;;;31.10;70.20;;;;;;4993127;28;20412;-71
2022/07/21 08:44:37;;;;;;;7.63;7.03;;;30.00;72.30;;;;;;4992571;28;20187;-72
2022/07/21 08:47:04;;;;;;;7.53;6.83;;;29.80;71.40;;;;;;4992729;28;20922;-72
2022/07/21 08:49:31;;;;;;;8.40;7.60;;;30.40;71.90;;;;;;4992764;28;20292;-71
2022/07/21 08:51:57;;;;;;;7.53;6.83;;;30.90;70.00;;;;;;4992691;28;20454;-72
2022/07/21 08:54:23;;;;;;;7.40;6.80;;;30.20;69.70;;;;;;4992679;28;20458;-71
2022/07/21 08:56:49;;;;;;;10.00;7.67;;;30.80;69.50;;;;;;4992531;28;20173;-71
2022/07/21 08:59:14;;;;;;;7.40;6.73;;;31.00;68.70;;;;;;4992545;28;20173;-71
2022/07/21 09:01:40;;;;;;;7.20;6.60;;;31.70;69.00;;;;;;4992259;28;20220;-72
2022/07/21 09:04:30;;;;;;;7.53;6.83;;;31.60;70.40;;;;;;4992393;28;20627;-71
2022/07/21 09:07:04;;;;;;;7.37;6.67;;;32.20;68.00;;;;;;4992517;28;20177;-70
2022/07/21 09:09:32;;;;;;;6.97;6.47;;;31.60;67.70;;;;;;4992370;28;20820;-71
2022/07/21 09:11:59;;;;;;;7.93;6.33;;;32.00;67.10;;;;;;4992286;28;20440;-71
2022/07/21 09:14:31;;;;;;;7.13;6.53;;;32.00;65.10;;;;;;4992257;28;20431;-71
2022/07/21 09:16:59;;;;;;;7.47;6.83;;;31.60;65.70;;;;;;4992492;28;20404;-72
2022/07/21 09:19:35;;;;;;;8.33;7.53;;;31.80;67.00;;;;;;4992309;28;20412;-70
2022/07/21 09:22:03;;;;;;;7.53;6.83;;;31.80;66.20;;;;;;4992306;28;20423;-72
2022/07/21 09:24:38;;;;;;;6.00;5.50;;;32.10;64.50;;;;;;4991309;28;20712;-72
2022/07/21 09:27:12;;;;;;;6.27;5.77;;;32.60;63.80;;;;;;4992416;28;20854;-71
2022/07/21 09:29:43;;;;;;;6.53;5.93;;;32.40;64.20;;;;;;4992335;28;20462;-71
2022/07/21 09:32:14;;;;;;;6.57;6.03;;;31.70;65.40;;;;;;4992237;28;20416;-71
2022/07/21 09:34:40;;;;;;;6.00;5.50;;;30.50;66.00;;;;;;4992473;28;20415;-71
2022/07/21 09:37:07;;;;;;;6.83;6.23;;;30.60;67.70;;;;;;4993232;28;20902;-71
2022/07/21 09:39:43;;;;;;;6.70;6.10;;;31.00;67.40;;;;;;4996071;28;20179;-71
2022/07/21 09:42:27;;;;;;;6.27;5.73;;;31.50;65.90;;;;;;4996043;28;20890;-72
2022/07/21 09:44:58;;;;;;;5.30;4.90;;;31.10;65.80;;;;;;4996017;28;20873;-71
2022/07/21 09:47:27;;;;;;;5.73;5.20;;;31.70;66.60;;;;;;4995845;28;20753;-72
2022/07/21 09:49:54;;;;;;;5.37;4.90;;;31.70;66.00;;;;;;4994494;28;20429;-72
2022/07/21 09:52:25;;;;;;;5.67;5.17;;;32.70;62.80;;;;;;4996147;28;20412;-72
2022/07/21 09:54:53;;;;;;;7.03;4.90;;;32.20;61.00;;;;;;4995684;28;20408;-72
2022/07/21 09:57:20;;;;;;;5.60;5.10;;;31.50;63.90;;;;;;4995600;28;20454;-71
2022/07/21 09:59:47;;;;;;;6.47;5.87;;;31.80;65.10;;;;;;4995321;28;20423;-71
2022/07/21 10:02:18;;;;;;;4.87;4.47;;;31.70;64.70;;;;;;4995819;28;20439;-72
2022/07/21 10:04:46;;;;;;;4.90;4.50;;;30.80;65.20;;;;;;4995414;28;20412;-71
2022/07/21 10:07:15;;;;;;;5.00;4.60;;;31.40;63.20;;;;;;4995547;28;20427;-72
2022/07/21 10:09:40;;;;;;;4.80;4.30;;;30.60;64.70;;;;;;4995478;28;20444;-71
2022/07/21 10:12:07;;;;;;;5.40;4.90;;;30.50;65.90;;;;;;4995578;28;20420;-72
2022/07/21 10:14:34;;;;;;;4.27;3.87;;;30.70;65.70;;;;;;4995403;28;20636;-71
2022/07/21 10:16:59;;;;;;;7.33;4.10;;;31.20;65.00;;;;;;4995387;28;20470;-70
2022/07/21 10:19:25;;;;;;;4.83;4.43;;;31.50;64.80;;;;;;4994056;28;20911;-71
2022/07/21 10:22:09;;;;;;;6.87;5.30;;;31.90;63.90;;;;;;4995132;28;20247;-71
2022/07/21 10:24:35;;;;;;;5.93;5.43;;;31.30;64.40;;;;;;4995072;28;20184;-71
2022/07/21 10:27:01;;;;;;;4.50;4.17;;;31.10;65.50;;;;;;4995219;28;20416;-71
2022/07/21 10:29:49;;;;;;;5.70;5.10;;;31.10;66.40;;;;;;4995068;28;20451;-71
2022/07/21 10:32:16;;;;;;;7.77;5.60;;;31.20;65.80;;;;;;4995147;28;20240;-71
2022/07/21 10:34:42;;;;;;;5.13;4.70;;;32.10;63.00;;;;;;4994874;28;20408;-71
2022/07/21 10:37:09;;;;;;;5.07;4.67;;;32.10;61.70;;;;;;4995308;28;20470;-71
2022/07/21 10:39:35;;;;;;;5.17;4.50;;;32.10;61.80;;;;;;4994766;28;20786;-71
2022/07/21 10:42:14;;;;;;;4.30;3.87;;;31.70;63.20;;;;;;4994727;28;20424;-71
2022/07/21 10:44:46;;;;;;;4.60;4.30;;;30.70;65.20;;;;;;4994705;28;20896;-71
2022/07/21 10:47:18;;;;;;;5.57;4.80;;;31.50;63.60;;;;;;4994872;28;20404;-71
2022/07/21 10:49:56;;;;;;;6.17;4.10;;;31.80;62.50;;;;;;4994544;28;20458;-72
2022/07/21 10:52:41;;;;;;;6.97;4.27;;;30.70;63.50;;;;;;4994780;28;20407;-71
2022/07/21 10:55:10;;;;;;;5.23;4.77;;;30.40;66.30;;;;;;4994733;28;20407;-72
2022/07/21 10:58:08;;;;;;;5.77;4.90;;;30.30;65.70;;;;;;4995136;28;20423;-71
2022/07/21 11:00:36;;;;;;;5.43;4.93;;;30.30;66.40;;;;;;4994358;28;20448;-70
2022/07/21 11:03:12;;;;;;;4.43;4.03;;;30.90;65.00;;;;;;4994511;28;20784;-71
2022/07/21 11:05:57;;;;;;;5.60;4.23;;;30.50;64.80;;;;;;4994765;28;20853;-71
2022/07/21 11:08:31;;;;;;;4.70;4.30;;;29.80;67.80;;;;;;4994313;28;20456;-71
2022/07/21 11:11:07;;;;;;;3.43;3.23;;;29.60;69.10;;;;;;4994200;28;20807;-71
2022/07/21 11:14:01;;;;;;;7.43;5.43;;;29.20;70.10;;;;;;4994204;28;20404;-70
2022/07/21 11:16:41;;;;;;;4.73;4.20;;;29.60;68.70;;;;;;4994107;28;20905;-72
2022/07/21 11:19:39;;;;;;;7.37;4.80;;;30.00;68.30;;;;;;4994076;28;20453;-72
2022/07/21 11:22:11;;;;;;;4.10;3.80;;;30.60;66.80;;;;;;4994245;28;20471;-72
2022/07/21 11:24:37;;;;;;;3.53;3.23;;;30.70;66.90;;;;;;4994309;28;20778;-71
2022/07/21 11:27:06;;;;;;;5.33;4.10;;;30.80;65.70;;;;;;4994051;28;20470;-71
2022/07/21 11:29:35;;;;;;;4.40;4.00;;;30.50;66.30;;;;;;4993812;28;20838;-70
2022/07/21 11:32:01;;;;;;;5.37;3.90;;;30.70;65.50;;;;;;4993860;28;20434;-71
2022/07/21 11:34:40;;;;;;;4.60;4.20;;;30.50;66.50;;;;;;4993844;28;20914;-72
2022/07/21 11:37:06;;;;;;;5.10;4.30;;;30.30;65.40;;;;;;4993804;28;20495;-72
2022/07/21 11:39:32;;;;;;;4.13;3.80;;;30.60;67.70;;;;;;4993754;28;20499;-72
2022/07/21 11:42:11;;;;;;;4.23;3.93;;;30.20;67.50;;;;;;4993627;28;20567;-72
2022/07/21 11:44:37;;;;;;;4.10;3.80;;;30.70;66.80;;;;;;4993752;28;20487;-72
2022/07/21 11:47:05;;;;;;;4.27;3.70;;;31.10;66.00;;;;;;4994252;28;20435;-72
2022/07/21 11:49:31;;;;;;;3.70;3.40;;;30.40;65.30;;;;;;4993607;28;20205;-71
2022/07/21 11:52:04;;;;;;;5.60;4.53;;;30.20;66.20;;;;;;4993355;28;20432;-72
2022/07/21 11:54:43;;;;;;;8.33;4.07;;;29.90;68.20;;;;;;4993297;28;20485;-71
2022/07/21 11:57:09;;;;;;;3.70;3.20;;;30.30;68.40;;;;;;4993691;28;20400;-70
2022/07/21 11:59:38;;;;;;;4.73;4.33;;;30.30;67.70;;;;;;4992868;28;20418;-72
2022/07/21 12:02:29;;;;;;;5.60;4.20;;;30.80;66.10;;;;;;4993264;28;20502;-71
2022/07/21 12:05:00;;;;;;;4.23;3.77;;;30.80;65.20;;;;;;4993111;28;20412;-71
2022/07/21 12:07:43;;;;;;;4.80;3.67;;;29.40;68.90;;;;;;4993250;28;20404;-72
2022/07/21 12:10:22;;;;;;;4.53;4.13;;;29.50;69.00;;;;;;4993318;28;20435;-70
2022/07/21 12:12:49;;;;;;;4.23;3.83;;;29.90;68.20;;;;;;4993230;28;20408;-73
2022/07/21 12:15:16;;;;;;;4.00;3.70;;;29.90;68.20;;;;;;4992776;28;20416;-72
2022/07/21 12:17:53;;;;;;;6.17;4.40;;;29.70;70.00;;;;;;4992747;28;20415;-72
2022/07/21 12:20:29;;;;;;;3.67;3.17;;;29.30;70.20;;;;;;4992959;28;20451;-72
2022/07/21 12:22:57;;;;;;;4.27;3.60;;;29.70;69.40;;;;;;4992830;28;20898;-72
2022/07/21 12:25:52;;;;;;;5.17;3.50;;;29.10;71.30;;;;;;4992505;28;20427;-71
2022/07/21 12:28:18;;;;;;;6.63;4.00;;;29.00;71.40;;;;;;4971160;28;20973;-71
2022/07/21 12:30:50;;;;;;;6.80;4.20;;;28.70;72.60;;;;;;4992725;28;20443;-71
2022/07/21 12:33:20;;;;;;;3.90;3.50;;;28.70;72.40;;;;;;4992453;28;20244;-72
2022/07/21 12:36:03;;;;;;;6.60;4.30;;;28.40;72.90;;;;;;4992878;28;20851;-72
2022/07/21 12:38:46;;;;;;;7.67;4.30;;;27.90;74.60;;;;;;4992795;28;20886;-72
2022/07/21 12:41:18;;;;;;;5.80;5.13;;;27.60;76.20;;;;;;4992953;28;20446;-73
2022/07/21 12:43:55;;;;;;;5.30;4.73;;;27.90;75.60;;;;;;4992776;28;20411;-71
2022/07/21 12:46:20;;;;;;;5.17;4.47;;;27.70;76.80;;;;;;4992514;28;20436;-72
2022/07/21 12:48:46;;;;;;;5.00;3.60;;;28.00;77.50;;;;;;4992166;28;20452;-71
2022/07/21 12:51:19;;;;;;;4.00;3.60;;;27.90;78.40;;;;;;4992270;28;20188;-71